Time;durP1;ratioP1;P1;durP2;ratioP2;P2;SDS_P1;SDS_P2;PMS_P1;PMS_P2;Temp;Humidity;BMP_temperature;BMP_pressure;BME280_temperature;BME280_humidity;BME280_pressure;Samples;Min_cycle;Max_cycle;Signal;HPM_P1;HPM_P2
2022/01/25 00:24:27;;;;;;;5.43;2.40;;;24.00;99.90;;;;;;4982346;28;20298;-72
2022/01/25 00:27:09;;;;;;;8.68;2.30;;;23.90;99.90;;;;;;4981986;28;20026;-72
2022/01/25 00:29:56;;;;;;;11.32;2.38;;;23.90;99.90;;;;;;4976215;28;20054;-73
2022/01/25 00:32:23;;;;;;;3.53;2.08;;;24.00;99.90;;;;;;4975780;28;20389;-71
2022/01/25 00:34:51;;;;;;;8.65;2.70;;;24.00;99.90;;;;;;4976036;28;20070;-71
2022/01/25 00:37:20;;;;;;;6.47;2.83;;;23.90;99.90;;;;;;4976011;28;20122;-71
2022/01/25 00:39:47;;;;;;;3.95;2.33;;;23.70;99.90;;;;;;4974562;28;20053;-72
2022/01/25 00:42:15;;;;;;;7.30;3.00;;;24.00;99.90;;;;;;4975621;28;20090;-71
2022/01/25 00:44:47;;;;;;;7.75;3.20;;;24.00;99.90;;;;;;4974364;28;20054;-72
2022/01/25 00:47:16;;;;;;;4.78;2.38;;;23.80;99.90;;;;;;4974756;28;20019;-72
2022/01/25 00:49:51;;;;;;;11.38;3.15;;;23.60;99.90;;;;;;4982137;28;20073;-72
2022/01/25 00:54:48;;;;;;;5.30;2.33;;;23.90;99.90;;;;;;4975167;28;20038;-72
2022/01/25 00:57:16;;;;;;;6.40;2.50;;;24.00;99.90;;;;;;4996971;28;20050;-72
2022/01/25 00:59:45;;;;;;;4.18;2.92;;;24.00;99.90;;;;;;4985487;28;20073;-72
2022/01/25 01:02:15;;;;;;;5.20;3.03;;;24.00;99.90;;;;;;4972470;28;20034;-72
2022/01/25 01:04:43;;;;;;;7.20;3.35;;;24.20;99.90;;;;;;4989850;28;20026;-74
2022/01/25 01:07:14;;;;;;;5.82;2.58;;;24.10;99.90;;;;;;4980794;28;20472;-72
2022/01/25 01:09:46;;;;;;;19.67;3.78;;;24.00;99.90;;;;;;4981641;28;20384;-73
2022/01/25 01:12:49;;;;;;;6.57;2.92;;;24.00;99.90;;;;;;4982485;28;20026;-72
2022/01/25 01:15:28;;;;;;;6.93;3.88;;;23.90;99.90;;;;;;4980092;28;20030;-73
2022/01/25 01:29:26;;;;;;;3.40;1.70;;;24.50;99.90;;;;;;4976294;28;20085;-73
2022/01/25 01:32:12;;;;;;;5.50;1.98;;;24.20;99.90;;;;;;4983118;28;20069;-74
2022/01/25 01:48:28;;;;;;;4.20;1.80;;;25.20;99.90;;;;;;4961778;28;20042;-72
2022/01/25 01:51:04;;;;;;;5.05;2.13;;;25.00;99.90;;;;;;4991197;28;20037;-73
2022/01/25 01:53:32;;;;;;;6.65;1.80;;;25.20;99.90;;;;;;4986923;28;20030;-73
2022/01/25 01:56:00;;;;;;;4.75;1.70;;;25.30;99.90;;;;;;4983274;28;20479;-72
2022/01/25 01:58:28;;;;;;;7.03;2.38;;;25.10;99.90;;;;;;4978923;28;20023;-74
2022/01/25 02:00:56;;;;;;;7.88;2.35;;;24.70;99.90;;;;;;4978513;28;20026;-73
2022/01/25 02:03:24;;;;;;;9.57;3.03;;;24.60;99.90;;;;;;4978415;28;20387;-73
2022/01/25 02:05:52;;;;;;;6.35;2.38;;;24.50;99.90;;;;;;4983754;28;20045;-73
2022/01/25 02:08:19;;;;;;;4.70;1.98;;;24.40;99.90;;;;;;4980302;28;20027;-74
2022/01/25 02:10:47;;;;;;;9.18;2.13;;;24.10;99.90;;;;;;4978652;28;20676;-73
2022/01/25 02:13:15;;;;;;;8.57;2.05;;;24.10;99.90;;;;;;4978428;28;20379;-73
2022/01/25 02:15:48;;;;;;;5.45;1.67;;;24.00;99.90;;;;;;4980570;28;20026;-73
2022/01/25 02:23:49;;;;;;;7.13;1.70;;;23.20;99.90;;;;;;4983977;28;20058;-73
2022/01/25 02:26:17;;;;;;;3.75;1.65;;;23.30;99.90;;;;;;4980011;28;20465;-73
2022/01/25 02:28:46;;;;;;;7.88;2.03;;;23.30;99.90;;;;;;4981253;28;20022;-74
2022/01/25 02:31:15;;;;;;;4.75;1.75;;;23.30;99.90;;;;;;4980266;28;20011;-73
2022/01/25 02:33:45;;;;;;;5.13;1.75;;;23.40;99.90;;;;;;4976307;28;20361;-75
2022/01/25 02:36:32;;;;;;;5.45;1.25;;;23.50;99.90;;;;;;4977070;28;20161;-76
2022/01/25 02:39:00;;;;;;;7.07;1.60;;;23.50;99.90;;;;;;4982572;28;20065;-74
2022/01/25 02:41:28;;;;;;;5.85;1.50;;;23.60;99.90;;;;;;4983639;28;20380;-73
2022/01/25 02:43:56;;;;;;;3.78;1.40;;;24.10;99.90;;;;;;4982173;28;20498;-74
2022/01/25 02:49:03;;;;;;;11.13;1.80;;;24.90;99.90;;;;;;4984481;28;20032;-73
2022/01/25 02:51:34;;;;;;;6.53;1.92;;;24.90;99.90;;;;;;4984082;28;20104;-72
2022/01/25 02:54:03;;;;;;;4.18;1.50;;;25.10;99.90;;;;;;4980820;28;20559;-75
2022/01/25 02:56:31;;;;;;;6.00;2.00;;;25.50;99.90;;;;;;4978064;28;20034;-75
2022/01/25 02:58:59;;;;;;;8.05;1.85;;;26.10;99.90;;;;;;4978522;28;20081;-76
2022/01/25 03:01:28;;;;;;;7.68;2.67;;;26.40;99.90;;;;;;4978805;28;20106;-73
2022/01/25 03:03:56;;;;;;;13.55;1.67;;;26.30;99.90;;;;;;4972847;28;20085;-75
2022/01/25 03:06:25;;;;;;;4.70;1.85;;;25.50;99.90;;;;;;4973233;28;20022;-74
2022/01/25 03:08:53;;;;;;;8.95;2.17;;;24.80;99.90;;;;;;4983472;28;20031;-73
2022/01/25 03:11:23;;;;;;;9.00;1.92;;;24.60;99.90;;;;;;4982439;28;20027;-73
2022/01/25 03:13:53;;;;;;;5.15;1.83;;;24.60;99.90;;;;;;4982993;28;20023;-73
2022/01/25 03:16:48;;;;;;;4.97;1.80;;;24.60;99.90;;;;;;4983995;28;20546;-73
2022/01/25 03:20:02;;;;;;;6.97;1.95;;;24.70;99.90;;;;;;4984264;28;20424;-73
2022/01/25 03:22:15;;;;;;;7.88;2.20;;;24.80;99.90;;;;;;4986916;28;20049;-74
2022/01/25 03:24:43;;;;;;;5.05;2.22;;;24.30;99.90;;;;;;4987105;28;20038;-75
2022/01/25 03:27:11;;;;;;;6.18;2.63;;;24.30;99.90;;;;;;4982547;28;20030;-73
2022/01/25 03:29:42;;;;;;;9.05;2.35;;;24.40;99.90;;;;;;4986153;28;20042;-75
2022/01/25 03:32:10;;;;;;;5.88;2.30;;;24.50;99.90;;;;;;4983142;28;20065;-80
2022/01/25 03:34:38;;;;;;;6.53;2.20;;;24.40;99.90;;;;;;4985005;28;20039;-74
2022/01/25 03:37:06;;;;;;;5.95;1.92;;;24.40;99.90;;;;;;4984641;28;20069;-72
2022/01/25 03:39:33;;;;;;;3.90;1.77;;;24.50;99.90;;;;;;4984352;28;20105;-77
2022/01/25 03:42:11;;;;;;;7.40;2.28;;;24.80;99.90;;;;;;4981318;28;20041;-78
2022/01/25 03:44:41;;;;;;;5.32;2.38;;;25.10;99.90;;;;;;4985709;28;20027;-78
2022/01/25 03:47:12;;;;;;;7.65;2.38;;;25.60;99.90;;;;;;4978036;28;20023;-73
2022/01/25 03:49:50;;;;;;;6.88;2.33;;;26.20;99.90;;;;;;4978687;28;20030;-72
2022/01/25 03:52:27;;;;;;;11.60;2.63;;;26.40;99.90;;;;;;4978240;28;20105;-72
2022/01/25 03:54:56;;;;;;;5.18;2.08;;;26.20;99.90;;;;;;4990970;28;20026;-73
2022/01/25 03:57:25;;;;;;;5.18;1.80;;;25.50;99.90;;;;;;4986215;28;20074;-74
2022/01/25 03:59:55;;;;;;;5.78;2.15;;;25.10;99.90;;;;;;4986177;28;20434;-74
2022/01/25 04:02:24;;;;;;;4.97;1.92;;;24.90;99.90;;;;;;4988264;28;20545;-74
2022/01/25 04:04:52;;;;;;;4.57;2.53;;;25.00;99.90;;;;;;4988939;28;20371;-73
2022/01/25 04:07:29;;;;;;;10.30;2.17;;;25.30;99.90;;;;;;4983904;28;20069;-72
2022/01/25 04:09:56;;;;;;;6.65;2.55;;;25.50;99.90;;;;;;4979473;28;20090;-72
2022/01/25 04:12:24;;;;;;;4.65;2.47;;;25.50;99.90;;;;;;4981411;28;20027;-73
2022/01/25 04:14:52;;;;;;;8.63;2.47;;;25.30;99.90;;;;;;4983977;28;20394;-73
2022/01/25 04:17:21;;;;;;;5.50;2.00;;;25.50;99.90;;;;;;4981591;28;20019;-72
2022/01/25 04:20:10;;;;;;;3.97;2.67;;;25.60;99.90;;;;;;4983389;28;20022;-75
2022/01/25 04:25:21;;;;;;;11.32;2.63;;;25.90;99.90;;;;;;4986689;28;20026;-75
2022/01/25 04:27:50;;;;;;;3.85;2.08;;;26.20;99.90;;;;;;4989843;28;20607;-75
2022/01/25 04:30:18;;;;;;;6.72;2.50;;;26.50;99.90;;;;;;4989751;28;20026;-76
2022/01/25 04:32:54;;;;;;;3.50;1.92;;;26.50;99.90;;;;;;4995578;28;20031;-76
2022/01/25 04:49:09;;;;;;;5.20;1.98;;;25.80;99.90;;;;;;4974081;28;20162;-75
2022/01/25 04:51:52;;;;;;;7.50;2.25;;;25.50;99.90;;;;;;4973442;28;20029;-77
2022/01/25 04:59:47;;;;;;;4.85;2.30;;;25.10;99.90;;;;;;4973332;28;20032;-75
2022/01/25 05:02:43;;;;;;;4.97;1.90;;;25.10;99.90;;;;;;4972686;28;20484;-75
2022/01/25 05:05:12;;;;;;;5.97;1.75;;;25.10;99.90;;;;;;4975175;28;20038;-76
2022/01/25 05:10:46;;;;;;;;;;;;;;;;;;;;;
2022/01/25 05:18:19;;;;;;;6.90;2.17;;;24.50;99.90;;;;;;4975619;28;20061;-76
2022/01/25 05:23:32;;;;;;;8.10;1.73;;;24.70;99.90;;;;;;4975008;28;20065;-75
2022/01/25 05:25:59;;;;;;;7.72;2.03;;;25.10;99.90;;;;;;4974227;28;20042;-76
2022/01/25 05:28:26;;;;;;;10.30;2.30;;;25.40;99.90;;;;;;4975483;28;20023;-76
2022/01/25 05:30:54;;;;;;;5.00;1.83;;;25.40;99.90;;;;;;4974690;28;20037;-76
2022/01/25 05:33:24;;;;;;;5.45;1.67;;;25.40;99.90;;;;;;4975273;28;20532;-77
2022/01/25 05:35:51;;;;;;;5.28;2.10;;;25.70;99.90;;;;;;4974071;28;20034;-76
2022/01/25 05:38:19;;;;;;;9.25;1.50;;;25.80;99.90;;;;;;4975154;28;20023;-76
2022/01/25 05:40:55;;;;;;;5.43;1.55;;;25.50;99.90;;;;;;4975224;28;20444;-76
2022/01/25 05:48:38;;;;;;;7.03;1.80;;;24.60;99.90;;;;;;4975041;28;20073;-75
2022/01/25 05:51:06;;;;;;;9.07;1.65;;;24.40;99.90;;;;;;4975264;28;20081;-76
2022/01/25 05:53:34;;;;;;;4.40;1.92;;;24.20;99.90;;;;;;4975206;28;20022;-75
2022/01/25 06:00:24;;;;;;;10.15;2.42;;;23.70;99.90;;;;;;4896321;29;20061;-76
2022/01/25 06:02:54;;;;;;;5.20;1.40;;;23.60;99.90;;;;;;4906106;29;20148;-75
2022/01/25 06:05:23;;;;;;;4.22;1.45;;;23.70;99.90;;;;;;4934842;29;20063;-76
2022/01/25 06:07:53;;;;;;;4.72;1.40;;;23.60;99.90;;;;;;4957463;28;20035;-75
2022/01/25 06:10:21;;;;;;;6.90;1.10;;;23.60;99.90;;;;;;4975212;28;20026;-75
2022/01/25 06:12:48;;;;;;;8.18;1.08;;;23.40;99.90;;;;;;4974614;28;20052;-73
2022/01/25 06:15:16;;;;;;;5.30;1.52;;;23.40;99.90;;;;;;4973572;28;20027;-74
2022/01/25 06:17:45;;;;;;;7.22;1.42;;;23.50;99.90;;;;;;4974750;28;20111;-74
2022/01/25 06:20:12;;;;;;;4.63;1.63;;;23.60;99.90;;;;;;4974474;28;20037;-75
2022/01/25 06:22:40;;;;;;;6.38;1.27;;;23.60;99.90;;;;;;4974755;28;20582;-75
2022/01/25 06:25:10;;;;;;;6.13;1.85;;;23.60;99.90;;;;;;4974693;28;20086;-76
2022/01/25 06:27:42;;;;;;;5.70;1.90;;;23.60;99.90;;;;;;4974516;28;20030;-74
2022/01/25 06:30:18;;;;;;;12.25;1.55;;;23.40;99.90;;;;;;4974593;28;20065;-74
2022/01/25 06:32:46;;;;;;;7.93;1.65;;;23.30;99.90;;;;;;4975092;28;20531;-76
2022/01/25 06:35:15;;;;;;;6.03;1.60;;;23.30;99.90;;;;;;4973532;28;20077;-76
2022/01/25 06:37:43;;;;;;;4.38;1.20;;;23.30;99.90;;;;;;4974503;28;20031;-74
2022/01/25 06:40:11;;;;;;;3.72;1.52;;;23.20;99.90;;;;;;4974249;28;20022;-74
2022/01/25 06:42:39;;;;;;;6.15;1.10;;;23.10;99.90;;;;;;4977223;28;20050;-75
2022/01/25 06:45:19;;;;;;;6.45;1.60;;;23.00;99.90;;;;;;4978833;28;20037;-76
2022/01/25 06:47:48;;;;;;;7.05;1.00;;;22.90;99.90;;;;;;4978500;28;20022;-76
2022/01/25 06:50:20;;;;;;;4.13;1.40;;;22.80;99.90;;;;;;4978855;28;20043;-75
2022/01/25 06:52:48;;;;;;;4.28;0.90;;;22.80;99.90;;;;;;4978365;28;20102;-76
2022/01/25 06:55:21;;;;;;;5.90;1.60;;;22.70;99.90;;;;;;4978344;28;20082;-75
2022/01/25 06:57:48;;;;;;;4.60;1.35;;;22.70;99.90;;;;;;4978263;28;20030;-75
2022/01/25 07:00:19;;;;;;;1.83;1.10;;;22.70;99.90;;;;;;4978175;28;20054;-75
2022/01/25 07:02:47;;;;;;;5.82;1.10;;;22.60;99.90;;;;;;4977920;28;20035;-75
2022/01/25 07:05:15;;;;;;;4.80;1.27;;;22.50;99.90;;;;;;4977957;28;20464;-76
2022/01/25 07:07:42;;;;;;;9.80;1.60;;;22.60;99.90;;;;;;4977992;28;20051;-75
2022/01/25 07:10:10;;;;;;;6.00;0.85;;;22.50;99.90;;;;;;4977947;28;20476;-75
2022/01/25 07:12:37;;;;;;;4.93;1.40;;;22.40;99.90;;;;;;4976822;28;20417;-75
2022/01/25 07:15:05;;;;;;;2.47;0.73;;;22.50;99.90;;;;;;4977879;28;20022;-74
2022/01/25 07:17:33;;;;;;;7.20;1.42;;;22.40;99.90;;;;;;4977826;28;20357;-75
2022/01/25 07:20:00;;;;;;;14.30;1.20;;;22.30;99.90;;;;;;4977727;28;20062;-75
2022/01/25 07:22:28;;;;;;;4.15;0.90;;;22.30;99.90;;;;;;4977319;28;20451;-75
2022/01/25 07:24:55;;;;;;;5.20;1.15;;;22.20;99.90;;;;;;4977841;28;20023;-75
2022/01/25 07:27:22;;;;;;;5.15;1.30;;;22.10;99.90;;;;;;4977856;28;20054;-75
2022/01/25 07:29:50;;;;;;;6.03;0.77;;;22.00;99.90;;;;;;4977622;28;20031;-75
2022/01/25 07:32:17;;;;;;;5.65;1.10;;;22.00;99.90;;;;;;4976428;28;20057;-75
2022/01/25 07:34:45;;;;;;;8.60;1.50;;;22.10;99.90;;;;;;4977467;28;20027;-75
2022/01/25 07:37:12;;;;;;;13.82;1.02;;;22.10;99.90;;;;;;4977440;28;20026;-75
2022/01/25 07:39:41;;;;;;;7.50;0.98;;;22.20;99.90;;;;;;4977367;28;20022;-75
2022/01/25 07:42:12;;;;;;;5.32;1.10;;;22.40;99.90;;;;;;4977552;28;20046;-74
2022/01/25 07:44:40;;;;;;;2.92;0.73;;;22.40;99.90;;;;;;4977161;28;20034;-74
2022/01/25 07:47:08;;;;;;;5.63;1.23;;;22.30;99.90;;;;;;4977402;28;20047;-74
2022/01/25 07:49:36;;;;;;;2.70;0.82;;;22.20;99.90;;;;;;4977318;28;20054;-74
2022/01/25 07:52:04;;;;;;;3.95;1.15;;;22.10;99.90;;;;;;4977416;28;20038;-75
2022/01/25 07:54:32;;;;;;;3.13;0.80;;;22.10;99.90;;;;;;4976561;28;20023;-76
2022/01/25 07:56:59;;;;;;;5.13;1.13;;;22.00;99.90;;;;;;4977148;28;20023;-75
2022/01/25 07:59:26;;;;;;;4.03;1.00;;;22.00;99.90;;;;;;4977109;28;20034;-75
2022/01/25 08:01:54;;;;;;;11.25;1.08;;;21.90;99.90;;;;;;4976945;28;20106;-75
2022/01/25 08:04:21;;;;;;;1.25;0.63;;;21.90;99.90;;;;;;4976889;28;20046;-75
2022/01/25 08:06:49;;;;;;;6.93;1.23;;;21.80;99.90;;;;;;4977360;28;20058;-75
2022/01/25 08:09:16;;;;;;;3.97;1.33;;;21.80;99.90;;;;;;4976758;28;20030;-75
2022/01/25 08:11:43;;;;;;;2.17;0.50;;;21.70;99.90;;;;;;4975676;28;20130;-75
2022/01/25 08:14:12;;;;;;;7.10;1.20;;;21.70;99.90;;;;;;4976852;28;20379;-76
2022/01/25 08:16:52;;;;;;;4.50;0.80;;;21.60;99.90;;;;;;4976852;28;20379;-75
2022/01/25 08:19:20;;;;;;;2.90;0.88;;;21.50;99.90;;;;;;4976699;28;20077;-75
2022/01/25 08:21:48;;;;;;;4.13;1.23;;;21.40;99.90;;;;;;4976559;28;20035;-75
2022/01/25 08:24:20;;;;;;;7.88;1.13;;;21.40;99.90;;;;;;4976667;28;20531;-74
2022/01/25 08:26:48;;;;;;;8.38;1.55;;;21.40;99.90;;;;;;4976693;28;20026;-75
2022/01/25 08:29:16;;;;;;;4.45;0.63;;;21.50;99.90;;;;;;4976416;28;20027;-76
2022/01/25 08:31:43;;;;;;;7.18;2.05;;;21.40;99.90;;;;;;4975512;28;20026;-76
2022/01/25 08:34:14;;;;;;;7.85;1.55;;;21.40;99.90;;;;;;4976591;28;20023;-75
2022/01/25 08:36:41;;;;;;;8.75;1.67;;;21.40;99.90;;;;;;4976386;28;20424;-74
2022/01/25 08:39:12;;;;;;;5.65;1.35;;;21.30;99.90;;;;;;4976342;28;20105;-74
2022/01/25 08:41:40;;;;;;;5.85;1.23;;;21.30;99.90;;;;;;4976552;28;20393;-74
2022/01/25 08:44:07;;;;;;;4.60;1.15;;;21.30;99.90;;;;;;4976126;28;20035;-75
2022/01/25 08:46:34;;;;;;;6.32;1.50;;;21.20;99.90;;;;;;4976364;28;20019;-75
2022/01/25 08:49:03;;;;;;;4.93;1.30;;;21.20;99.90;;;;;;4976026;28;20034;-75
2022/01/25 08:51:30;;;;;;;8.40;0.90;;;21.20;99.90;;;;;;4976317;28;20026;-75
2022/01/25 08:53:59;;;;;;;6.55;1.73;;;21.10;99.90;;;;;;4974901;28;20034;-75
2022/01/25 08:56:26;;;;;;;2.63;0.50;;;21.10;99.90;;;;;;4976004;28;20445;-76
2022/01/25 08:58:54;;;;;;;3.55;1.27;;;21.10;99.90;;;;;;4975919;28;20376;-75
2022/01/25 09:01:21;;;;;;;5.38;1.55;;;21.10;99.90;;;;;;4974625;28;20424;-76
2022/01/25 09:03:49;;;;;;;4.60;1.38;;;21.10;99.90;;;;;;4975628;28;20085;-76
2022/01/25 09:06:18;;;;;;;3.33;0.80;;;21.00;99.90;;;;;;4974665;28;20073;-75
2022/01/25 09:08:45;;;;;;;7.05;1.10;;;21.00;99.90;;;;;;4975612;28;20031;-75
2022/01/25 09:11:15;;;;;;;7.03;1.40;;;21.00;99.90;;;;;;4975706;28;20563;-74
2022/01/25 09:13:45;;;;;;;5.80;1.80;;;20.90;99.90;;;;;;4975795;28;20388;-74
2022/01/25 09:16:13;;;;;;;4.60;0.82;;;20.90;99.90;;;;;;4975492;28;20022;-73
2022/01/25 09:19:16;;;;;;;5.20;1.70;;;20.90;99.90;;;;;;4975584;28;20041;-75
2022/01/25 09:21:43;;;;;;;6.60;1.48;;;20.90;99.90;;;;;;4954250;29;20027;-75
2022/01/25 09:24:11;;;;;;;5.35;1.58;;;20.80;99.90;;;;;;4971195;28;20039;-75
2022/01/25 09:26:41;;;;;;;4.93;1.30;;;20.80;99.90;;;;;;4975457;28;20023;-75
2022/01/25 09:29:11;;;;;;;4.57;1.38;;;20.80;99.90;;;;;;4975260;28;20086;-75
2022/01/25 09:31:39;;;;;;;8.23;1.40;;;20.80;99.90;;;;;;4975851;28;20052;-74
2022/01/25 09:34:09;;;;;;;4.00;1.30;;;20.80;99.90;;;;;;4975465;28;20475;-74
2022/01/25 09:36:37;;;;;;;4.30;1.45;;;20.80;99.90;;;;;;4974816;28;20034;-74
2022/01/25 09:39:04;;;;;;;5.65;0.80;;;20.80;99.90;;;;;;4975046;28;20037;-74
2022/01/25 09:41:32;;;;;;;4.20;1.33;;;20.80;99.90;;;;;;4974844;28;20057;-74
2022/01/25 09:43:59;;;;;;;3.85;1.10;;;20.80;99.90;;;;;;4974520;28;20526;-73
2022/01/25 09:46:26;;;;;;;5.82;0.98;;;20.80;99.90;;;;;;4975463;28;20035;-74
2022/01/25 09:48:54;;;;;;;3.70;1.50;;;20.80;99.90;;;;;;4987153;28;20081;-75
2022/01/25 09:51:22;;;;;;;7.57;1.63;;;20.80;99.90;;;;;;4983061;28;20022;-74
2022/01/25 09:53:49;;;;;;;9.80;1.40;;;20.70;99.90;;;;;;4973981;28;20435;-75
2022/01/25 09:56:17;;;;;;;3.97;1.20;;;20.70;99.90;;;;;;4983830;28;20038;-74
2022/01/25 09:58:44;;;;;;;6.10;0.90;;;20.60;99.90;;;;;;4983681;28;20564;-75
2022/01/25 10:01:12;;;;;;;4.55;1.42;;;20.60;99.90;;;;;;4983039;28;20034;-74
2022/01/25 10:03:42;;;;;;;5.18;1.15;;;20.60;99.90;;;;;;4981474;28;20118;-74
2022/01/25 10:06:16;;;;;;;6.18;1.33;;;20.60;99.90;;;;;;4984390;28;20031;-75
2022/01/25 10:08:44;;;;;;;5.22;1.00;;;20.50;99.90;;;;;;4980981;28;20506;-74
2022/01/25 10:11:16;;;;;;;12.10;1.58;;;20.50;99.90;;;;;;4978921;28;20523;-75
2022/01/25 10:13:55;;;;;;;6.40;1.30;;;20.50;99.90;;;;;;4983549;28;20081;-74
2022/01/25 10:16:32;;;;;;;5.80;1.08;;;20.50;99.90;;;;;;4976352;28;20031;-75
2022/01/25 10:19:10;;;;;;;7.85;1.17;;;20.50;99.90;;;;;;4987210;28;20026;-75
2022/01/25 10:21:41;;;;;;;5.80;1.27;;;20.40;99.90;;;;;;4984944;28;20028;-74
2022/01/25 10:24:14;;;;;;;5.68;1.05;;;20.40;99.90;;;;;;4993136;28;20031;-74
2022/01/25 10:27:00;;;;;;;12.45;1.25;;;20.40;99.90;;;;;;4993063;28;20062;-74
2022/01/25 10:29:30;;;;;;;8.75;1.08;;;20.30;99.90;;;;;;4993241;28;20564;-73
2022/01/25 10:32:02;;;;;;;7.50;1.13;;;20.30;99.90;;;;;;4989290;28;20022;-74
2022/01/25 10:34:41;;;;;;;1.90;0.70;;;20.30;99.90;;;;;;4993157;28;20029;-75
2022/01/25 10:37:13;;;;;;;5.22;1.30;;;20.30;99.90;;;;;;4992911;28;20014;-74
2022/01/25 10:39:44;;;;;;;6.85;1.52;;;20.30;99.90;;;;;;4992996;28;20040;-74
2022/01/25 10:42:23;;;;;;;6.20;1.00;;;20.30;99.90;;;;;;4993076;28;20029;-74
2022/01/25 10:44:58;;;;;;;8.52;0.98;;;20.30;99.90;;;;;;4992934;28;20037;-74
2022/01/25 10:47:50;;;;;;;;;;;20.30;99.90;;;;;;4993056;28;20018;-76
2022/01/25 10:50:35;;;;;;;8.00;1.20;;;20.20;99.90;;;;;;4988208;28;20318;-76
2022/01/25 10:53:16;;;;;;;4.38;1.05;;;20.20;99.90;;;;;;4990965;28;20058;-75
2022/01/25 10:55:51;;;;;;;3.50;0.98;;;20.20;99.90;;;;;;4992833;28;20029;-74
2022/01/25 10:58:19;;;;;;;3.95;0.80;;;20.10;99.90;;;;;;4989721;28;20018;-74
2022/01/25 11:00:49;;;;;;;4.35;1.02;;;20.10;99.90;;;;;;4992478;28;20076;-74
2022/01/25 11:03:34;;;;;;;6.22;0.90;;;20.00;99.90;;;;;;4992603;28;20035;-76
2022/01/25 11:06:17;;;;;;;5.03;1.20;;;20.00;99.90;;;;;;4992743;28;20034;-73
2022/01/25 11:08:48;;;;;;;3.92;0.93;;;20.00;99.90;;;;;;4992730;28;20118;-74
2022/01/25 11:11:36;;;;;;;4.40;1.00;;;20.00;99.90;;;;;;4992685;28;20026;-74
2022/01/25 11:16:52;;;;;;;6.45;1.08;;;19.90;99.90;;;;;;4992694;28;20037;-75
2022/01/25 11:19:21;;;;;;;9.23;1.20;;;19.90;99.90;;;;;;4990053;28;20045;-74
2022/01/25 11:21:50;;;;;;;3.53;0.77;;;19.80;99.90;;;;;;4990356;28;20030;-75
2022/01/25 11:24:19;;;;;;;5.18;1.02;;;19.80;99.90;;;;;;4981386;28;20034;-74
2022/01/25 11:26:48;;;;;;;6.22;1.88;;;19.80;99.90;;;;;;4982745;28;20623;-73
2022/01/25 11:29:16;;;;;;;4.03;1.15;;;19.80;99.90;;;;;;4983320;28;20057;-73
2022/01/25 11:31:50;;;;;;;3.92;1.10;;;19.80;99.90;;;;;;4986301;28;20015;-74
2022/01/25 11:34:22;;;;;;;4.05;1.10;;;19.90;99.90;;;;;;4984842;28;20179;-73
2022/01/25 11:36:56;;;;;;;8.07;1.50;;;19.90;99.90;;;;;;4986405;28;20482;-74
2022/01/25 11:39:28;;;;;;;8.00;1.60;;;19.90;99.90;;;;;;4986001;28;20435;-73
2022/01/25 11:42:15;;;;;;;2.42;0.93;;;20.00;99.90;;;;;;4985482;28;20030;-73
2022/01/25 11:44:53;;;;;;;4.43;0.73;;;20.00;99.90;;;;;;4977372;28;20023;-74
2022/01/25 11:47:29;;;;;;;8.13;1.10;;;20.00;99.90;;;;;;4977384;28;20030;-72
2022/01/25 11:50:08;;;;;;;2.53;1.02;;;20.00;99.90;;;;;;4977214;28;20019;-73
2022/01/25 11:52:36;;;;;;;6.15;1.30;;;19.90;99.90;;;;;;4976286;28;20031;-74
2022/01/25 11:55:24;;;;;;;3.28;0.90;;;19.90;99.90;;;;;;4977160;28;20023;-73
2022/01/25 11:58:08;;;;;;;3.78;0.65;;;19.90;99.90;;;;;;4977022;28;20383;-72
2022/01/25 12:01:06;;;;;;;4.78;1.02;;;19.80;99.90;;;;;;4977141;28;20098;-73
2022/01/25 12:03:37;;;;;;;5.57;1.67;;;19.80;99.90;;;;;;4976700;28;20031;-73
2022/01/25 12:06:26;;;;;;;6.95;1.70;;;19.80;99.90;;;;;;4977072;28;20062;-72
2022/01/25 12:11:40;;;;;;;7.00;1.42;;;19.80;99.90;;;;;;4976963;28;20085;-73
2022/01/25 12:14:43;;;;;;;3.75;1.27;;;19.80;99.90;;;;;;4977106;28;20023;-73
2022/01/25 12:17:18;;;;;;;4.20;1.30;;;19.80;99.90;;;;;;4976725;28;20583;-74
2022/01/25 12:19:58;;;;;;;4.70;1.23;;;19.70;99.90;;;;;;4976653;28;20035;-73
2022/01/25 12:22:41;;;;;;;3.88;1.13;;;19.70;99.90;;;;;;4976484;28;20054;-73
2022/01/25 12:25:36;;;;;;;8.82;1.48;;;19.60;99.90;;;;;;4976865;28;20027;-73
2022/01/25 12:28:10;;;;;;;5.97;1.30;;;19.60;99.90;;;;;;4976515;28;20022;-73
2022/01/25 12:30:43;;;;;;;7.97;1.55;;;19.50;99.90;;;;;;4976638;28;20131;-72
2022/01/25 12:33:23;;;;;;;5.22;1.63;;;19.50;99.90;;;;;;4976672;28;20031;-74
2022/01/25 12:35:59;;;;;;;7.20;1.17;;;19.60;99.90;;;;;;4977082;28;20050;-72
2022/01/25 12:38:43;;;;;;;6.93;1.50;;;19.60;99.90;;;;;;4976497;28;20023;-73
2022/01/25 12:41:15;;;;;;;11.88;1.05;;;19.60;99.90;;;;;;4976538;28;20034;-72
2022/01/25 12:43:50;;;;;;;5.50;1.63;;;19.70;99.90;;;;;;4976227;28;20033;-73
2022/01/25 12:46:24;;;;;;;8.23;1.50;;;19.70;99.90;;;;;;4976427;28;20048;-72
2022/01/25 12:49:00;;;;;;;3.38;0.90;;;19.70;99.90;;;;;;4976007;28;20392;-72
2022/01/25 12:51:33;;;;;;;5.03;1.25;;;19.70;99.90;;;;;;4976195;28;20022;-73
2022/01/25 12:54:03;;;;;;;9.60;1.45;;;19.70;99.90;;;;;;4976136;28;20130;-72
2022/01/25 12:56:46;;;;;;;10.27;1.63;;;19.70;99.90;;;;;;4976038;28;20048;-72
2022/01/25 12:59:16;;;;;;;4.53;1.13;;;19.70;99.90;;;;;;4974907;28;20033;-73
2022/01/25 13:01:44;;;;;;;8.35;1.73;;;19.70;99.90;;;;;;4976071;28;20027;-73
2022/01/25 13:04:12;;;;;;;5.35;1.00;;;19.70;99.90;;;;;;4975622;28;20096;-73
2022/01/25 13:06:43;;;;;;;4.78;1.40;;;19.60;99.90;;;;;;4976272;28;20476;-73
2022/01/25 13:15:02;;;;;;;5.18;0.90;;;19.60;99.90;;;;;;4975904;28;20475;-73
2022/01/25 13:17:31;;;;;;;2.35;0.93;;;19.60;99.90;;;;;;4975876;28;20530;-73
2022/01/25 13:20:03;;;;;;;7.03;1.40;;;19.60;99.90;;;;;;4975599;28;20039;-73
2022/01/25 13:22:38;;;;;;;4.40;1.25;;;19.50;99.90;;;;;;4973943;28;20133;-73
2022/01/25 13:25:42;;;;;;;;;;;19.60;99.90;;;;;;4994525;28;20395;-73
2022/01/25 13:28:22;;;;;;;1.45;0.68;;;19.60;99.90;;;;;;4993533;28;19905;-73
2022/01/25 13:30:49;;;;;;;5.38;1.20;;;19.60;99.90;;;;;;4994943;28;20028;-73
2022/01/25 13:33:20;;;;;;;6.32;1.48;;;19.60;99.90;;;;;;4994892;28;20035;-74
2022/01/25 13:35:53;;;;;;;8.35;1.67;;;19.60;99.90;;;;;;4995140;28;20106;-73
2022/01/25 13:38:32;;;;;;;6.07;1.23;;;19.60;99.90;;;;;;4994531;28;20488;-73
2022/01/25 13:41:20;;;;;;;7.63;1.10;;;19.60;99.90;;;;;;4994796;28;20021;-73
2022/01/25 13:46:22;;;;;;;4.72;1.13;;;19.60;99.90;;;;;;4994699;28;20109;-74
2022/01/25 13:48:53;;;;;;;3.60;1.17;;;19.60;99.90;;;;;;4994661;28;20041;-73
2022/01/25 13:51:24;;;;;;;3.85;1.00;;;19.60;99.90;;;;;;4994047;28;20110;-74
2022/01/25 13:53:55;;;;;;;4.22;1.20;;;19.60;99.90;;;;;;4994586;28;20062;-73
2022/01/25 13:56:25;;;;;;;3.35;1.00;;;19.70;99.90;;;;;;4994538;28;20022;-73
2022/01/25 13:58:53;;;;;;;4.50;1.67;;;19.70;99.90;;;;;;4994368;28;20031;-73
2022/01/25 14:01:24;;;;;;;4.55;1.63;;;19.70;99.90;;;;;;4994574;28;20490;-73
2022/01/25 14:04:22;;;;;;;3.15;1.38;;;19.70;99.90;;;;;;4994103;28;20050;-73
2022/01/25 14:06:55;;;;;;;7.15;1.83;;;19.70;99.90;;;;;;4994041;28;20034;-74
2022/01/25 14:09:32;;;;;;;3.70;1.25;;;19.70;99.90;;;;;;4994247;28;20052;-73
2022/01/25 14:25:46;;;;;;;;;;;19.70;99.90;;;;;;4994699;28;20130;-74
2022/01/25 14:28:25;;;;;;;6.07;1.00;;;19.70;99.90;;;;;;4993962;28;20031;-74
2022/01/25 14:30:58;;;;;;;3.75;1.10;;;19.70;99.90;;;;;;4993985;28;20022;-74
2022/01/25 14:33:32;;;;;;;6.05;1.80;;;19.70;99.90;;;;;;4992764;28;20022;-73
2022/01/25 14:36:05;;;;;;;3.63;1.50;;;19.70;99.90;;;;;;4994121;28;20022;-73
2022/01/25 14:38:45;;;;;;;3.60;1.00;;;19.70;99.90;;;;;;4993896;28;20030;-73
2022/01/25 14:41:14;;;;;;;9.02;1.20;;;19.70;99.90;;;;;;4993831;28;20029;-73
2022/01/25 14:43:51;;;;;;;4.40;0.85;;;19.70;99.90;;;;;;4993672;28;20027;-73
2022/01/25 14:46:48;;;;;;;4.55;1.58;;;19.70;99.90;;;;;;4993970;28;20050;-73
2022/01/25 14:49:28;;;;;;;5.15;1.00;;;19.70;99.90;;;;;;4993642;28;20498;-73
2022/01/25 14:51:59;;;;;;;5.95;1.35;;;19.70;99.90;;;;;;4992641;28;20037;-73
2022/01/25 14:54:32;;;;;;;5.47;1.58;;;19.70;99.90;;;;;;4994084;28;20543;-73
2022/01/25 14:57:05;;;;;;;3.28;1.05;;;19.70;99.90;;;;;;4994140;28;20030;-73
2022/01/25 14:59:38;;;;;;;4.68;1.40;;;19.60;99.90;;;;;;4993892;28;20533;-73
2022/01/25 15:02:17;;;;;;;4.20;1.08;;;19.60;99.90;;;;;;4994122;28;20026;-74
2022/01/25 15:04:48;;;;;;;3.25;1.10;;;19.60;99.90;;;;;;4996757;28;20036;-73
2022/01/25 15:07:18;;;;;;;3.95;1.52;;;19.60;99.90;;;;;;4997714;28;20054;-73
2022/01/25 15:09:49;;;;;;;4.72;1.63;;;19.60;99.90;;;;;;4996356;28;20048;-73
2022/01/25 15:12:30;;;;;;;2.75;1.00;;;19.50;99.90;;;;;;4997376;28;20022;-73
2022/01/25 15:17:29;;;;;;;4.47;1.10;;;19.50;99.90;;;;;;4997427;28;20112;-73
2022/01/25 15:19:57;;;;;;;4.18;1.42;;;19.50;99.90;;;;;;4997471;28;20038;-74
2022/01/25 15:22:26;;;;;;;7.38;1.40;;;19.40;99.90;;;;;;4997028;28;20395;-73
2022/01/25 15:24:54;;;;;;;2.50;1.00;;;19.30;99.90;;;;;;4997031;28;20108;-74